Flight Track Log - Related Links

Times and Time Zones

All times are in EDT time to prevent confusion due to time zone crossing. See the OPT452 flight status page for this flight to view local times or setup timezone preferences in your user account.

Time Position Orientation Groundspeed Altitude Reporting Facility
EDT Latitude Longitude Course Direction KTS MPH feet Rate Location/Type
Thu 03:13:48 PM 33.9333 -83.3000 244° Southwest 155 178 2,200  Level Atlanta TRACON
Thu 03:14:17 PM 33.9089 -83.2953 171° South 163 188 2,800 2,225 Climbing Atlanta Center
Thu 03:15:17 PM 33.8525 -83.3033 187° South 204 235 5,500 2,950 Climbing Atlanta Center
Thu 03:16:17 PM 33.7881 -83.3214 193° South 224 258 8,700 3,150 Climbing Atlanta Center
Thu 03:17:17 PM 33.7214 -83.3394 193° South 239 275 11,800 2,450 Climbing Atlanta Center
Thu 03:18:17 PM 33.6756 -83.3997 228° Southwest 246 283 13,600 1,650 Climbing Atlanta Center
Thu 03:19:00 PM 33.7643 -83.6976 244° Southwest  Level FlightAware Approximate
Thu 03:19:17 PM 33.6364 -83.4725 237° Southwest 260 299 15,100  Level Atlanta Center
Thu 03:20:17 PM 33.5889 -83.5625 238° Southwest 304 350 16,000 450 Climbing Atlanta Center
Thu 03:21:17 PM 33.5369 -83.6675 239° Southwest 351 404 16,000  Level Atlanta Center
Thu 03:22:17 PM 33.4850 -83.7672 238° Southwest 366 421 16,000  Level Atlanta Center
Thu 03:23:17 PM 33.4372 -83.8619 239° Southwest 344 396 16,000  Level Atlanta Center
Thu 03:24:17 PM 33.3892 -83.9542 238° Southwest 339 390 16,000  Level Atlanta Center
Thu 03:25:17 PM 33.3350 -84.0586 238° Southwest 339 390 16,000  Level Atlanta Center
Thu 03:26:17 PM 33.2869 -84.1556 239° Southwest 339 390 16,000  Level Atlanta Center
Thu 03:27:17 PM 33.2347 -84.2525 237° Southwest 339 390 16,000  Level Atlanta Center
Thu 03:28:17 PM 33.1864 -84.3517 240° Southwest 339 390 16,000  Level Atlanta Center
Thu 03:29:17 PM 33.1361 -84.4481 238° Southwest 347 399 16,000  Level Atlanta Center
Thu 03:30:17 PM 33.0836 -84.5472 238° Southwest 347 399 16,000  Level Atlanta Center
Thu 03:31:17 PM 33.0308 -84.6458 237° Southwest 347 399 16,000  Level Atlanta Center
Thu 03:32:17 PM 32.9867 -84.7372 240° Southwest 347 399 16,000  Level Atlanta Center
Thu 03:33:17 PM 32.9339 -84.8333 237° Southwest 352 405 16,000  Level Atlanta Center
Thu 03:34:17 PM 32.8831 -84.9317 238° Southwest 352 405 16,000  Level Atlanta Center
Thu 03:35:17 PM 32.8300 -85.0278 237° Southwest 352 405 16,000 -250 Level Atlanta Center
Thu 03:36:17 PM 32.7772 -85.1233 237° Southwest 352 405 15,500 -1,550 Descending Atlanta Center
Thu 03:37:17 PM 32.7283 -85.2192 239° Southwest 352 405 12,900 -3,050 Descending Atlanta Center
Thu 03:38:17 PM 32.6794 -85.3122 238° Southwest 341 392 9,400 -3,550 Descending Atlanta Center
Thu 03:39:17 PM 32.7100 -85.3719 301° West 253 291 5,800 -3,150 Descending Atlanta Center
Thu 03:40:17 PM 32.7281 -85.4389 288° West 214 246 3,100 -1,500 Descending Atlanta Center
Thu 03:41:17 PM 32.6839 -85.4556 198° South 142 163 2,800 6,450 Descending Atlanta Center
Thu 03:42:17 PM 32.6628 -85.4922 236° Southwest 142 163 16,000 6,600 Climbing Atlanta Center
Thu 03:43:17 PM 32.6414 -85.5289 235° Southwest 142 163 16,000  Level Atlanta Center
Thu 03:44:17 PM 32.6244 -85.5581 235° Southwest 142 163 16,000  Level Atlanta Center
Thu 03:45:17 PM 32.6244 -85.5581 40° Northeast 142 163 16,000  Level Atlanta Center

Login

Don't have an account? Register now (free) for customized features, flight alerts, and more!